Time;durP1;ratioP1;P1;durP2;ratioP2;P2;SDS_P1;SDS_P2;PMS_P1;PMS_P2;Temp;Humidity;BMP_temperature;BMP_pressure;BME280_temperature;BME280_humidity;BME280_pressure;Samples;Min_cycle;Max_cycle;Signal;HPM_P1;HPM_P2
2021/12/08 00:00:55;;;;;;;6.15;2.47;;;0.00;77.10;;;-2.14;85.87;94804.88;4969167;28;20549;-73
2021/12/08 00:03:22;;;;;;;7.13;2.42;;;0.00;77.40;;;-2.19;85.43;94814.78;4985978;28;20046;-73
2021/12/08 00:05:48;;;;;;;6.57;2.55;;;0.00;77.30;;;-2.22;85.73;94815.88;4970329;28;20034;-73
2021/12/08 00:08:16;;;;;;;5.88;2.65;;;0.00;77.30;;;-2.23;85.52;94803.97;4986664;28;20041;-71
2021/12/08 00:13:25;;;;;;;7.35;2.90;;;0.00;77.30;;;-2.28;85.50;94780.38;4986929;28;20057;-73
2021/12/08 00:15:53;;;;;;;6.63;2.97;;;0.00;77.20;;;-2.29;85.88;94771.03;4968954;28;20737;-73
2021/12/08 00:18:23;;;;;;;4.60;2.20;;;0.00;77.50;;;-2.29;86.10;94776.19;4955133;28;20125;-73
2021/12/08 00:20:51;;;;;;;5.70;2.42;;;0.00;77.40;;;-2.29;85.89;94775.38;4984983;28;20038;-72
2021/12/08 00:23:17;;;;;;;4.32;2.20;;;0.00;77.30;;;-2.29;86.03;94767.66;4985675;28;20329;-73
2021/12/08 00:25:43;;;;;;;6.30;2.78;;;0.00;77.40;;;-2.29;85.79;94780.53;4966128;28;20042;-74
2021/12/08 00:28:09;;;;;;;3.85;2.13;;;0.00;77.30;;;-2.31;85.62;94765.22;4968051;28;20039;-73
2021/12/08 00:30:37;;;;;;;7.22;2.75;;;0.00;77.30;;;-2.32;85.66;94755.06;4969127;28;20108;-74
2021/12/08 00:33:04;;;;;;;6.72;2.47;;;-3276.70;77.30;;;-2.33;86.22;94743.16;4967876;28;20042;-73
2021/12/08 00:35:29;;;;;;;4.90;2.30;;;-3276.70;77.70;;;-2.35;85.89;94732.19;4986890;28;20174;-74
2021/12/08 00:37:56;;;;;;;7.45;2.70;;;-3276.70;77.50;;;-2.35;86.23;94716.72;4968792;28;20121;-73
2021/12/08 00:40:22;;;;;;;4.13;2.45;;;-3276.70;77.60;;;-2.37;86.08;94721.22;4983532;28;20038;-73
2021/12/08 00:42:48;;;;;;;4.38;2.30;;;-3276.70;77.60;;;-2.39;86.39;94718.78;4968321;28;20060;-73
2021/12/08 00:45:14;;;;;;;5.78;2.45;;;-3276.70;77.70;;;-2.40;86.42;94724.91;4984492;28;20550;-73
2021/12/08 00:47:40;;;;;;;7.38;2.67;;;-3276.70;77.90;;;-2.40;86.02;94711.22;4942588;28;20031;-72
2021/12/08 00:50:08;;;;;;;6.85;3.17;;;-3276.70;78.00;;;-2.40;86.39;94703.50;4987606;28;20500;-73
2021/12/08 00:52:34;;;;;;;6.38;2.80;;;-3276.60;77.90;;;-2.39;85.98;94707.69;4985955;28;20050;-73
2021/12/08 00:55:04;;;;;;;5.78;2.85;;;-3276.60;77.80;;;-2.39;86.53;94708.50;4984142;28;20117;-72
2021/12/08 00:57:30;;;;;;;6.40;2.80;;;-3276.70;77.80;;;-2.39;86.39;94702.53;4965950;28;20105;-73
2021/12/08 00:59:55;;;;;;;6.93;3.15;;;-3276.70;77.80;;;-2.39;86.02;94702.53;4983627;28;20053;-73
2021/12/08 01:02:21;;;;;;;5.07;2.67;;;-3276.70;77.80;;;-2.39;86.09;94698.19;4984250;28;20066;-73
2021/12/08 01:04:47;;;;;;;6.40;3.03;;;-3276.70;77.70;;;-2.37;86.41;94700.63;4982722;28;20121;-73
2021/12/08 01:07:13;;;;;;;5.93;2.85;;;-3276.70;77.80;;;-2.37;85.91;94698.06;4989255;28;20057;-73
2021/12/08 01:09:38;;;;;;;4.85;2.50;;;0.00;77.60;;;-2.37;85.97;94700.63;4969807;28;20034;-73
2021/12/08 01:12:05;;;;;;;3.65;2.30;;;0.00;77.50;;;-2.37;85.86;94695.47;4980577;28;20074;-73
2021/12/08 01:14:34;;;;;;;5.43;2.47;;;0.00;77.50;;;-2.37;86.22;94705.78;4955220;28;20038;-73
2021/12/08 01:17:01;;;;;;;6.50;3.20;;;0.00;77.40;;;-2.36;85.85;94709.97;4982434;28;20042;-73
2021/12/08 01:19:26;;;;;;;5.57;2.80;;;-3276.70;77.20;;;-2.37;86.19;94706.59;4986176;28;20045;-74
2021/12/08 01:21:52;;;;;;;6.93;2.88;;;-3276.70;77.30;;;-2.37;86.00;94700.63;4951673;28;20035;-73
2021/12/08 01:24:18;;;;;;;8.43;2.50;;;-3276.70;77.30;;;-2.40;85.84;94706.06;4969250;28;20034;-73
2021/12/08 01:26:44;;;;;;;4.35;2.55;;;-3276.70;77.00;;;-2.40;85.55;94712.03;4983259;28;20061;-73
2021/12/08 01:29:09;;;;;;;4.43;2.80;;;-3276.70;77.30;;;-2.43;85.70;94708.94;4986714;28;20130;-73
2021/12/08 01:31:39;;;;;;;5.40;3.03;;;-3276.60;77.10;;;-2.43;85.59;94711.50;4985233;28;20062;-74
2021/12/08 01:34:05;;;;;;;5.32;2.83;;;-3276.70;77.10;;;-2.44;85.65;94704.75;4969162;28;20134;-74
2021/12/08 01:36:31;;;;;;;5.15;2.75;;;-3276.70;77.20;;;-2.44;85.90;94699.59;4986903;28;20030;-74
2021/12/08 01:38:57;;;;;;;5.68;2.92;;;-3276.70;77.20;;;-2.43;86.53;94701.22;4978368;28;20414;-72
2021/12/08 01:41:23;;;;;;;5.55;2.45;;;-3276.70;77.10;;;-2.43;86.32;94690.91;4986445;28;20034;-73
2021/12/08 01:46:34;;;;;;;5.00;2.63;;;0.00;77.10;;;-2.39;86.32;94695.63;4970946;28;20046;-72
2021/12/08 01:49:00;;;;;;;7.82;2.92;;;0.00;77.30;;;-2.39;86.13;94687.09;4978086;28;20030;-73
2021/12/08 01:51:26;;;;;;;5.10;3.00;;;0.00;77.40;;;-2.39;86.17;94681.94;4985963;28;20041;-73
2021/12/08 01:53:54;;;;;;;3.47;2.47;;;0.00;77.20;;;-2.38;85.69;94688.72;4986077;28;20038;-73
2021/12/08 01:56:22;;;;;;;4.50;2.75;;;0.00;77.10;;;-2.39;85.97;94675.03;4972415;28;20050;-73
2021/12/08 01:58:48;;;;;;;7.57;3.08;;;0.00;77.10;;;-2.39;86.00;94674.22;4984364;28;20462;-72
2021/12/08 02:01:20;;;;;;;3.95;2.45;;;0.00;77.30;;;-2.40;86.21;94670.03;4974048;28;20121;-73
2021/12/08 02:03:45;;;;;;;4.65;2.70;;;-3276.70;77.00;;;-2.42;85.88;94671.94;4988043;28;20703;-73
2021/12/08 02:06:13;;;;;;;6.82;2.55;;;0.00;77.30;;;-2.42;85.82;94671.94;4956841;28;20035;-73
2021/12/08 02:08:41;;;;;;;5.28;2.60;;;-3276.70;77.00;;;-2.41;86.11;94676.13;4990234;28;20042;-74
2021/12/08 02:11:07;;;;;;;4.78;2.42;;;-3276.70;77.30;;;-2.42;85.92;94674.50;4973083;28;20037;-73
2021/12/08 02:13:38;;;;;;;4.68;2.67;;;-3276.70;77.30;;;-2.42;86.17;94671.94;4965804;28;20109;-71
2021/12/08 02:16:10;;;;;;;4.57;2.72;;;-3276.70;77.10;;;-2.41;85.78;94668.41;4990479;28;20477;-71
2021/12/08 02:18:36;;;;;;;5.82;2.92;;;0.00;77.20;;;-2.39;86.01;94666.50;4973082;28;20037;-74
2021/12/08 02:21:25;;;;;;;4.78;2.78;;;0.00;77.10;;;-2.38;86.55;94665.53;4989489;28;20108;-73
2021/12/08 02:23:51;;;;;;;6.07;2.72;;;0.00;77.20;;;-2.38;86.16;94657.81;4988556;28;20050;-73
2021/12/08 02:26:17;;;;;;;5.95;2.90;;;0.00;76.90;;;-2.37;86.16;94654.28;4971211;28;20071;-73
2021/12/08 02:28:43;;;;;;;6.38;2.72;;;0.00;77.00;;;-2.36;86.14;94648.16;4968607;28;20406;-73
2021/12/08 02:31:12;;;;;;;5.43;2.80;;;0.00;77.20;;;-2.35;86.43;94647.22;4988159;28;20045;-74
2021/12/08 02:49:49;;;;;;;5.90;2.85;;;0.00;76.80;;;-2.26;85.91;94646.34;4971321;28;20142;-72
2021/12/08 02:52:15;;;;;;;3.40;2.10;;;0.10;76.80;;;-2.25;85.73;94653.13;4988815;28;20066;-73
2021/12/08 02:54:44;;;;;;;6.65;3.55;;;0.10;76.00;;;-2.25;85.61;94650.56;4962028;28;20045;-74
2021/12/08 02:57:10;;;;;;;24.38;13.52;;;0.00;75.80;;;-2.25;85.37;94653.94;4960940;28;20071;-74
2021/12/08 02:59:36;;;;;;;13.88;7.85;;;0.00;75.90;;;-2.24;85.40;94649.59;4990075;28;20034;-73
2021/12/08 03:02:02;;;;;;;19.05;10.98;;;0.10;76.30;;;-2.21;85.53;94651.88;4973853;28;20039;-72
2021/12/08 03:04:28;;;;;;;19.85;11.05;;;0.10;75.70;;;-2.18;85.92;94646.44;4986523;28;20038;-73
2021/12/08 03:06:54;;;;;;;5.05;3.00;;;0.20;76.10;;;-2.14;84.98;94655.47;4985373;28;20054;-72
2021/12/08 03:09:19;;;;;;;6.22;3.05;;;0.20;75.50;;;-2.13;85.37;94659.66;4989307;28;20035;-72
2021/12/08 03:11:48;;;;;;;4.43;2.35;;;0.10;75.20;;;-2.14;85.30;94655.47;4970877;28;20222;-73
2021/12/08 03:14:15;;;;;;;5.63;2.47;;;0.10;75.50;;;-2.12;85.25;94653.56;4956720;28;20042;-73
2021/12/08 03:16:45;;;;;;;4.32;2.35;;;0.20;75.60;;;-2.09;85.19;94653.25;4985366;28;20351;-73
2021/12/08 03:19:11;;;;;;;7.18;3.25;;;0.20;75.20;;;-2.07;85.06;94656.50;4955134;28;20129;-72
2021/12/08 03:21:36;;;;;;;4.28;2.75;;;0.20;75.20;;;-2.05;85.31;94648.63;4988070;28;20039;-73
2021/12/08 03:32:11;;;;;;;4.72;2.55;;;0.40;75.30;;;-1.95;85.17;94649.38;4967650;28;20038;-73
2021/12/08 03:34:41;;;;;;;4.35;2.63;;;0.40;75.30;;;-1.95;85.19;94637.28;4988787;28;20129;-73
2021/12/08 03:37:07;;;;;;;5.43;2.60;;;0.40;75.40;;;-1.92;85.50;94639.56;4972173;28;20046;-73
2021/12/08 03:39:33;;;;;;;4.22;2.63;;;0.40;75.30;;;-1.89;85.42;94641.03;4972047;28;20034;-72
2021/12/08 03:41:59;;;;;;;23.85;12.35;;;0.50;75.20;;;-1.89;85.49;94628.97;4986812;28;20144;-74
2021/12/08 03:44:25;;;;;;;60.00;33.35;;;0.50;75.60;;;-1.86;85.41;94633.81;4984839;28;20037;-74
2021/12/08 03:46:54;;;;;;;16.15;8.82;;;0.60;75.60;;;-1.83;85.56;94637.84;4993921;28;20624;-74
2021/12/08 03:49:20;;;;;;;5.90;3.92;;;0.60;75.10;;;-1.79;85.26;94639.19;4987704;28;20030;-74
2021/12/08 03:51:46;;;;;;;4.88;2.60;;;0.60;75.00;;;-1.76;84.86;94635.50;4985518;28;20505;-74
2021/12/08 03:54:12;;;;;;;7.97;4.63;;;0.60;74.60;;;-1.73;84.93;94637.78;4970476;28;20121;-74
2021/12/08 03:56:38;;;;;;;11.18;6.38;;;0.60;75.00;;;-1.72;85.14;94635.06;4985713;28;20037;-73
2021/12/08 03:59:04;;;;;;;6.70;4.60;;;0.60;75.70;;;-1.69;85.41;94636.53;4986249;28;20521;-73
2021/12/08 04:01:30;;;;;;;6.28;2.95;;;0.70;75.40;;;-1.68;85.02;94630.41;4971370;28;20041;-73
2021/12/08 04:04:01;;;;;;;17.48;10.32;;;0.70;74.90;;;-1.67;85.06;94621.72;4967419;28;20381;-73
2021/12/08 04:06:34;;;;;;;9.18;5.03;;;0.70;74.90;;;-1.65;84.88;94622.38;4998761;28;20038;-73
2021/12/08 04:09:04;;;;;;;7.78;4.28;;;0.70;74.10;;;-1.63;84.39;94616.09;4987330;28;20022;-73
2021/12/08 04:11:30;;;;;;;5.18;2.80;;;0.70;74.10;;;-1.60;84.50;94627.88;4986514;28;20039;-72
2021/12/08 04:14:09;;;;;;;4.53;2.60;;;0.70;74.00;;;-1.58;83.55;94631.94;4953072;28;20121;-72
2021/12/08 04:16:48;;;;;;;5.95;2.80;;;0.80;73.40;;;-1.61;83.51;94634.81;4983017;28;20398;-72
2021/12/08 04:19:15;;;;;;;19.55;12.43;;;0.60;73.20;;;-1.58;84.13;94638.88;4987205;28;21401;-69
2021/12/08 04:21:41;;;;;;;29.00;18.10;;;0.70;74.30;;;-1.55;84.50;94643.72;4985992;28;20070;-71
2021/12/08 04:24:07;;;;;;;22.02;14.90;;;0.80;74.40;;;-1.54;84.36;94642.75;4970722;28;20034;-72
2021/12/08 04:27:11;;;;;;;7.95;4.80;;;0.90;74.60;;;-1.50;84.15;94669.06;4983642;28;20146;-69
2021/12/08 04:29:38;;;;;;;6.55;3.25;;;0.80;73.90;;;-1.49;83.78;94666.31;4981020;28;20152;-73
2021/12/08 04:32:06;;;;;;;5.85;2.90;;;0.80;73.20;;;-1.51;83.67;94657.13;4955378;28;20063;-73
2021/12/08 04:34:36;;;;;;;5.10;2.67;;;0.80;73.20;;;-1.54;83.75;94663.38;4940869;28;20095;-73
2021/12/08 04:37:07;;;;;;;5.90;2.42;;;0.80;73.30;;;-1.52;83.75;94665.81;4970608;28;20062;-73
2021/12/08 04:39:52;;;;;;;4.20;2.55;;;0.90;73.70;;;-1.52;83.83;94664.03;4973435;28;20031;-73
2021/12/08 04:42:27;;;;;;;5.53;2.78;;;0.90;73.40;;;-1.52;83.52;94666.63;4960809;28;20049;-73
2021/12/08 04:45:01;;;;;;;5.18;2.63;;;0.90;73.10;;;-1.52;83.87;94666.63;4954517;28;20118;-72
2021/12/08 04:47:49;;;;;;;5.50;2.72;;;0.80;73.30;;;-1.56;83.71;94655.00;4971849;28;20046;-72
2021/12/08 04:50:41;;;;;;;5.97;2.88;;;0.80;73.30;;;-1.57;83.64;94658.53;4967373;28;20027;-71
2021/12/08 04:53:35;;;;;;;4.00;2.38;;;0.80;73.50;;;-1.56;83.82;94653.22;4944650;28;20031;-71
2021/12/08 05:01:46;;;;;;;5.40;2.95;;;0.70;74.10;;;-1.57;84.13;94681.75;4975502;28;20518;-73
2021/12/08 05:09:37;;;;;;;7.03;3.00;;;0.70;74.50;;;-1.57;83.59;94689.47;4977540;28;20101;-73
2021/12/08 05:12:28;;;;;;;4.05;2.38;;;0.80;74.30;;;-1.57;83.56;94686.91;4937764;28;20070;-73
2021/12/08 05:15:29;;;;;;;4.55;2.60;;;0.70;74.10;;;-1.56;83.66;94686.75;4969195;28;20042;-72
2021/12/08 05:18:24;;;;;;;6.22;3.03;;;0.70;74.10;;;-1.55;83.93;94683.19;4974375;28;20030;-71
2021/12/08 05:21:05;;;;;;;4.95;3.33;;;0.80;74.10;;;-1.52;83.77;94686.44;4990290;28;20042;-74
2021/12/08 05:23:43;;;;;;;5.25;2.90;;;0.80;74.30;;;-1.52;84.37;94678.69;4977163;28;20054;-73
2021/12/08 05:26:24;;;;;;;4.65;2.53;;;0.80;74.10;;;-1.51;84.02;94686.28;4953567;28;20035;-70
2021/12/08 05:28:50;;;;;;;5.00;2.97;;;0.90;74.00;;;-1.48;84.10;94687.75;4951328;28;20034;-70
2021/12/08 05:31:26;;;;;;;5.25;3.03;;;0.90;74.10;;;-1.49;84.13;94691.28;4976497;28;20137;-69
2021/12/08 05:33:53;;;;;;;4.30;2.70;;;0.90;74.30;;;-1.48;83.79;94688.56;4974876;28;20034;-69
2021/12/08 05:36:18;;;;;;;5.03;2.80;;;0.90;74.00;;;-1.48;83.91;94687.75;4992467;28;20038;-69
2021/12/08 05:38:44;;;;;;;4.25;2.78;;;0.90;73.60;;;-1.47;83.36;94695.34;4975355;28;20066;-70
2021/12/08 05:41:14;;;;;;;5.30;2.58;;;0.90;73.50;;;-1.49;83.41;94686.94;4992673;28;20057;-69
2021/12/08 05:43:41;;;;;;;3.90;2.60;;;0.90;73.40;;;-1.48;83.62;94675.66;4975638;28;20125;-68
2021/12/08 05:46:07;;;;;;;8.38;2.80;;;0.90;73.60;;;-1.46;83.65;94689.22;4992567;28;20034;-67
2021/12/08 05:48:33;;;;;;;3.92;2.80;;;0.80;73.90;;;-1.46;83.79;94686.63;4991878;28;20060;-70
2021/12/08 05:51:11;;;;;;;6.47;2.78;;;0.90;73.90;;;-1.44;83.41;94696.81;4974880;28;20506;-69
2021/12/08 05:53:38;;;;;;;4.70;2.72;;;0.90;73.80;;;-1.44;83.84;94691.66;4988592;28;20121;-74
2021/12/08 05:56:04;;;;;;;9.00;5.25;;;0.90;73.90;;;-1.44;83.80;94686.50;4974800;28;20049;-75
2021/12/08 05:58:29;;;;;;;25.15;15.90;;;0.90;74.60;;;-1.41;84.50;94709.41;4964234;28;20414;-70
2021/12/08 06:01:04;;;;;;;15.25;10.40;;;1.00;75.10;;;-1.38;84.26;94702.16;4987983;28;20038;-71
2021/12/08 06:03:30;;;;;;;8.15;4.70;;;1.00;74.90;;;-1.37;84.31;94695.22;4953919;28;20100;-68
2021/12/08 06:05:56;;;;;;;7.65;4.90;;;1.00;74.10;;;-1.35;83.99;94699.31;5001169;28;20089;-68
2021/12/08 06:08:22;;;;;;;5.30;3.47;;;1.00;73.70;;;-1.36;83.70;94687.38;4999169;28;20038;-75
2021/12/08 06:10:48;;;;;;;5.32;3.47;;;0.90;73.20;;;-1.36;83.46;94686.53;4992805;28;20085;-72
2021/12/08 06:13:14;;;;;;;4.53;3.25;;;1.00;73.20;;;-1.35;83.74;94699.31;4971762;28;20077;-73
2021/12/08 06:15:42;;;;;;;5.28;3.08;;;1.10;73.40;;;-1.38;83.48;94684.09;4989922;28;20450;-72
2021/12/08 06:18:08;;;;;;;7.47;4.07;;;1.00;73.50;;;-1.36;83.69;94689.13;4954870;28;20517;-69
2021/12/08 06:20:34;;;;;;;5.90;3.65;;;1.00;73.60;;;-1.34;83.95;94694.97;4990058;28;20056;-69
2021/12/08 06:23:00;;;;;;;5.90;3.55;;;1.00;73.80;;;-1.34;83.63;94700.94;4964967;28;20061;-68
2021/12/08 06:25:26;;;;;;;4.43;2.95;;;1.10;73.60;;;-1.32;83.55;94687.88;4973810;28;20027;-69
2021/12/08 06:27:52;;;;;;;6.30;3.25;;;1.00;73.90;;;-1.31;83.96;94685.16;4974640;28;20034;-69
2021/12/08 06:30:21;;;;;;;6.40;3.28;;;1.10;73.90;;;-1.31;83.43;94695.47;4991513;28;20112;-72
2021/12/08 06:32:47;;;;;;;6.32;2.85;;;1.10;73.60;;;-1.28;83.44;94684.03;4973711;28;20045;-69
2021/12/08 06:35:22;;;;;;;4.68;2.90;;;1.10;73.70;;;-1.28;83.23;94690.00;4975639;28;20034;-73
2021/12/08 06:37:49;;;;;;;4.63;2.88;;;1.10;73.00;;;-1.28;83.53;94695.16;4979765;28;20516;-72
2021/12/08 06:40:32;;;;;;;6.15;4.40;;;1.00;73.30;;;-1.26;83.45;94692.44;4955253;28;20447;-71
2021/12/08 06:43:00;;;;;;;7.03;4.38;;;1.00;74.00;;;-1.29;83.42;94692.72;4991505;28;20046;-73
2021/12/08 06:45:41;;;;;;;6.88;3.75;;;1.00;74.20;;;-1.30;83.72;94686.75;4973722;28;20054;-71
2021/12/08 06:48:12;;;;;;;5.00;3.15;;;1.00;74.30;;;-1.30;83.56;94696.28;4944133;28;20038;-69
2021/12/08 06:50:46;;;;;;;6.63;3.63;;;0.90;74.20;;;-1.31;84.16;94685.16;4989519;28;20065;-69
2021/12/08 06:53:12;;;;;;;5.78;3.42;;;1.00;75.70;;;-1.29;84.23;94683.22;4990046;28;20046;-71
2021/12/08 06:56:04;;;;;;;5.55;3.65;;;1.00;76.20;;;-1.25;84.57;94671.63;4975162;28;20030;-69
2021/12/08 06:58:32;;;;;;;7.95;3.85;;;1.10;75.10;;;-1.23;84.46;94680.03;4983441;28;20400;-69
2021/12/08 07:01:34;;;;;;;6.85;3.92;;;1.10;75.20;;;-1.18;85.09;94668.44;4946413;28;20045;-72
2021/12/08 07:04:25;;;;;;;6.65;4.30;;;1.20;75.40;;;-1.13;84.56;94666.19;4960675;28;20092;-69
2021/12/08 07:07:01;;;;;;;6.22;4.15;;;1.30;75.50;;;-1.10;84.57;94663.34;4988759;28;20034;-71
2021/12/08 07:09:37;;;;;;;7.85;4.40;;;1.20;74.70;;;-1.04;85.18;94670.47;4975405;28;20099;-68
2021/12/08 07:12:17;;;;;;;34.30;23.58;;;1.40;76.00;;;-0.96;85.77;94670.50;4973712;28;20096;-70
2021/12/08 07:14:49;;;;;;;34.17;24.05;;;1.50;76.50;;;-0.92;85.47;94671.81;4989707;28;20041;-74
2021/12/08 07:17:20;;;;;;;37.88;24.40;;;1.60;75.90;;;-0.87;85.17;94668.78;4956507;28;20101;-72
2021/12/08 07:19:51;;;;;;;9.32;6.30;;;1.60;75.70;;;-0.84;84.74;94666.69;4988549;28;20034;-66
2021/12/08 07:22:25;;;;;;;7.10;4.28;;;1.50;74.20;;;-0.85;84.57;94654.75;4965544;28;20105;-71
2021/12/08 07:24:53;;;;;;;7.95;3.72;;;1.60;74.20;;;-0.84;85.24;94661.53;4986148;28;20494;-72
2021/12/08 07:27:24;;;;;;;7.00;3.17;;;1.60;75.00;;;-0.78;85.17;94660.91;4982209;28;20061;-73
2021/12/08 07:29:50;;;;;;;6.00;3.55;;;1.70;75.80;;;-0.76;85.44;94663.34;4968656;28;20037;-73
2021/12/08 07:32:25;;;;;;;6.93;3.35;;;1.60;75.00;;;-0.77;85.28;94662.53;4956793;28;20158;-74
2021/12/08 07:34:52;;;;;;;5.68;3.45;;;1.60;75.00;;;-0.76;85.33;94658.97;4973169;28;20437;-70
2021/12/08 07:37:25;;;;;;;7.07;4.13;;;1.60;75.00;;;-0.76;85.21;94656.41;4984848;28;20038;-68
2021/12/08 07:39:59;;;;;;;6.35;4.03;;;1.60;74.80;;;-0.73;85.15;94663.84;4956332;28;20189;-73
2021/12/08 07:42:44;;;;;;;10.25;3.60;;;1.70;75.10;;;-0.72;85.62;94662.88;4982398;28;20045;-74
2021/12/08 07:45:14;;;;;;;7.10;4.57;;;1.70;75.50;;;-0.71;85.04;94661.09;4955967;28;20031;-74
2021/12/08 07:47:40;;;;;;;10.27;5.65;;;1.70;75.00;;;-0.72;85.11;94652.53;4970071;28;20101;-69
2021/12/08 07:50:32;;;;;;;7.70;4.63;;;1.70;74.90;;;-0.69;85.24;94656.56;4970435;28;20466;-68
2021/12/08 07:52:58;;;;;;;7.05;4.10;;;1.70;75.30;;;-0.69;85.35;94670.28;4978702;28;20038;-66
2021/12/08 07:55:38;;;;;;;5.25;3.85;;;1.70;74.90;;;-0.70;85.56;94673.84;4973629;28;20084;-68
2021/12/08 07:58:05;;;;;;;6.20;3.75;;;1.60;75.50;;;-0.70;85.67;94673.84;4947556;28;20368;-71
2021/12/08 08:00:43;;;;;;;5.93;3.42;;;1.60;76.10;;;-0.68;85.92;94679.69;4973916;28;20092;-69
2021/12/08 08:03:09;;;;;;;6.28;3.92;;;1.70;76.10;;;-0.66;86.21;94680.34;4971392;28;20114;-64
2021/12/08 08:05:35;;;;;;;7.40;4.03;;;1.70;76.60;;;-0.69;85.72;94677.22;4973327;28;20436;-72
2021/12/08 08:08:05;;;;;;;6.30;4.13;;;1.50;76.30;;;-0.70;86.00;94663.50;4973125;28;20712;-71
2021/12/08 08:10:32;;;;;;;10.95;4.28;;;1.60;76.70;;;-0.67;86.28;94668.41;4956342;28;20035;-71
2021/12/08 08:13:01;;;;;;;10.23;4.97;;;1.60;76.60;;;-0.66;86.08;94670.00;4972178;28;20034;-71
2021/12/08 08:15:30;;;;;;;15.68;4.68;;;1.70;76.90;;;-0.64;86.18;94673.25;4973639;28;20121;-68
2021/12/08 08:17:56;;;;;;;11.88;5.57;;;1.70;76.80;;;-0.66;86.40;94664.84;4972290;28;20073;-69
2021/12/08 08:20:26;;;;;;;9.73;4.68;;;1.70;76.80;;;-0.65;86.37;94655.31;4960274;28;20063;-69
2021/12/08 08:22:52;;;;;;;9.48;4.50;;;1.60;77.00;;;-0.66;86.69;94659.69;4968760;28;20646;-72
2021/12/08 08:25:20;;;;;;;6.55;4.20;;;1.70;76.90;;;-0.65;86.41;94645.81;4976516;28;20050;-69
2021/12/08 08:27:46;;;;;;;11.05;5.30;;;1.70;77.20;;;-0.63;86.73;94636.13;4956488;28;20046;-73
2021/12/08 08:30:18;;;;;;;10.90;6.97;;;1.70;77.10;;;-0.60;86.76;94634.19;4974998;28;20518;-71
2021/12/08 08:32:47;;;;;;;11.15;5.93;;;1.80;77.20;;;-0.59;86.89;94633.22;4971824;28;20038;-72
2021/12/08 08:35:19;;;;;;;9.77;5.85;;;1.80;77.30;;;-0.57;87.73;94621.78;4972990;28;20046;-73
2021/12/08 08:37:47;;;;;;;9.63;5.78;;;1.80;77.50;;;-0.52;87.75;94611.78;4971840;28;20038;-72
2021/12/08 08:40:21;;;;;;;9.27;5.00;;;2.00;77.60;;;-0.46;88.13;94605.16;4932172;28;20059;-73
2021/12/08 08:42:50;;;;;;;8.73;4.57;;;2.10;77.70;;;-0.37;88.11;94611.97;4956794;28;20031;-73
2021/12/08 08:45:29;;;;;;;10.20;5.03;;;2.20;77.60;;;-0.31;88.49;94604.41;4966278;28;20133;-74
2021/12/08 08:48:14;;;;;;;7.78;4.32;;;2.30;77.40;;;-0.23;88.14;94598.44;4965057;28;20466;-73
2021/12/08 08:50:58;;;;;;;8.85;4.88;;;2.40;76.60;;;-0.15;88.08;94606.22;4962172;28;20461;-68
2021/12/08 08:53:27;;;;;;;7.88;4.93;;;2.40;77.00;;;-0.12;88.43;94595.53;4973452;28;20474;-70
2021/12/08 08:56:04;;;;;;;9.20;4.63;;;2.40;77.30;;;-0.08;88.26;94596.03;4986184;28;20074;-70
2021/12/08 08:58:30;;;;;;;19.85;13.63;;;2.40;77.60;;;-0.05;88.16;94596.50;4969900;28;20031;-69
2021/12/08 09:01:13;;;;;;;20.95;14.63;;;2.50;78.10;;;0.01;88.71;94610.59;4984494;28;20092;-68
2021/12/08 09:03:41;;;;;;;13.57;8.40;;;2.60;78.20;;;0.02;88.82;94601.88;4981515;28;20034;-74
2021/12/08 09:06:14;;;;;;;25.63;17.95;;;2.60;77.20;;;0.07;88.21;94603.97;4987725;28;20035;-68
2021/12/08 09:08:40;;;;;;;20.20;11.23;;;2.60;77.40;;;0.11;88.57;94605.25;4987997;28;20041;-69
2021/12/08 09:11:10;;;;;;;11.05;5.60;;;2.60;77.50;;;0.12;88.31;94599.91;4978483;28;20108;-73
2021/12/08 09:14:15;;;;;;;6.43;4.23;;;2.60;77.10;;;0.14;89.01;94605.72;4984784;28;20050;-64
2021/12/08 09:16:46;;;;;;;9.13;4.32;;;2.60;76.70;;;0.15;87.79;94609.13;4975220;28;20290;-64
2021/12/08 09:19:16;;;;;;;8.30;3.75;;;2.60;77.10;;;0.14;88.24;94610.91;4987654;28;20080;-75
2021/12/08 09:22:00;;;;;;;9.90;4.20;;;2.60;76.80;;;0.14;88.60;94602.34;4981364;28;20073;-70
2021/12/08 09:24:49;;;;;;;6.95;4.32;;;2.60;76.70;;;0.19;88.92;94598.28;4981945;28;20104;-73
2021/12/08 09:27:20;;;;;;;9.18;4.28;;;2.70;77.00;;;0.24;88.79;94603.00;4983528;28;20125;-74
2021/12/08 09:29:56;;;;;;;10.07;4.80;;;2.80;76.90;;;0.28;88.40;94591.34;4983198;28;20035;-74
2021/12/08 09:32:59;;;;;;;6.53;4.40;;;2.80;77.00;;;0.33;89.04;94583.09;4956505;28;20048;-74
2021/12/08 09:35:31;;;;;;;8.73;4.75;;;2.80;76.70;;;0.39;87.81;94578.06;4980196;28;20035;-70
2021/12/08 09:38:14;;;;;;;9.90;4.28;;;2.90;76.50;;;0.43;88.50;94566.41;4971718;28;20042;-71
2021/12/08 09:40:57;;;;;;;7.68;4.50;;;3.00;76.40;;;0.47;88.42;94567.72;4972893;28;20038;-74
2021/12/08 09:43:26;;;;;;;9.77;5.05;;;3.00;76.20;;;0.49;88.78;94552.84;4991442;23;20062;-74
2021/12/08 09:46:13;;;;;;;7.15;4.47;;;3.00;76.20;;;0.51;88.31;94540.56;4952870;28;20036;-69
2021/12/08 09:48:42;;;;;;;11.20;4.97;;;3.00;76.30;;;0.53;87.85;94538.63;4953774;28;20030;-73
2021/12/08 09:51:07;;;;;;;8.73;4.97;;;3.10;76.60;;;0.56;88.84;94538.28;4936189;28;20037;-74
2021/12/08 09:53:34;;;;;;;9.10;5.72;;;3.10;77.00;;;0.60;89.32;94538.75;4952373;28;20399;-72
2021/12/08 09:56:00;;;;;;;9.70;4.78;;;3.10;77.20;;;0.64;88.34;94552.16;4938980;28;20058;-73
2021/12/08 09:58:25;;;;;;;7.68;4.95;;;3.20;77.30;;;0.66;89.15;94552.78;4949155;28;20027;-71
2021/12/08 10:00:55;;;;;;;6.53;4.57;;;3.10;77.30;;;0.65;89.20;94562.34;4940735;28;20032;-68
2021/12/08 10:03:21;;;;;;;9.00;6.20;;;3.10;77.10;;;0.65;88.73;94566.69;4957928;28;20122;-68
2021/12/08 10:05:47;;;;;;;11.00;6.53;;;3.10;77.40;;;0.63;89.03;94555.72;4977236;28;20057;-76
2021/12/08 10:08:13;;;;;;;16.58;6.78;;;3.00;78.00;;;0.60;88.64;94556.84;4923309;29;20463;-75
2021/12/08 10:10:41;;;;;;;22.05;7.95;;;2.90;77.50;;;0.58;88.88;94562.19;4932504;28;20055;-73
2021/12/08 10:13:07;;;;;;;15.48;6.78;;;2.90;77.50;;;0.59;88.54;94560.41;4951374;28;20035;-72
2021/12/08 10:15:33;;;;;;;14.85;5.38;;;2.90;77.40;;;0.59;88.97;94556.06;4953521;28;20027;-75
2021/12/08 10:17:59;;;;;;;18.08;6.15;;;2.90;77.40;;;0.60;88.86;94549.91;4971377;28;20041;-75
2021/12/08 10:20:31;;;;;;;14.38;5.50;;;3.00;77.30;;;0.61;88.77;94537.78;4947210;28;20036;-75
2021/12/08 10:23:23;;;;;;;11.70;5.28;;;3.00;77.60;;;0.67;89.80;94521.56;4940061;28;20050;-68
2021/12/08 10:25:58;;;;;;;11.75;5.10;;;3.20;78.00;;;0.73;88.93;94507.19;4971015;28;20483;-67
2021/12/08 10:28:31;;;;;;;11.18;4.70;;;3.20;77.00;;;0.75;88.28;94500.06;4947356;28;20361;-68
2021/12/08 10:30:58;;;;;;;8.38;5.15;;;3.30;77.20;;;0.80;89.12;94502.94;4955289;28;20034;-70
2021/12/08 10:36:49;;;;;;;7.57;4.43;;;3.30;75.40;;;0.85;87.82;94511.00;4952555;28;20047;-70
2021/12/08 10:39:33;;;;;;;7.70;4.78;;;3.30;75.60;;;0.79;87.60;94516.84;4951645;28;20035;-68
2021/12/08 10:42:19;;;;;;;7.95;4.80;;;3.10;74.70;;;0.75;86.53;94515.59;4955049;28;20114;-70
2021/12/08 10:45:11;;;;;;;10.25;4.82;;;3.10;75.30;;;0.73;87.28;94504.59;4971001;28;20057;-68
2021/12/08 10:47:49;;;;;;;8.90;5.07;;;3.10;75.30;;;0.70;87.51;94492.81;4955205;28;20039;-70
2021/12/08 10:56:19;;;;;;;10.70;5.07;;;3.10;74.80;;;0.65;86.84;94486.50;4965621;28;20046;-63
2021/12/08 10:58:50;;;;;;;9.77;4.95;;;3.10;74.50;;;0.65;86.41;94478.75;4965388;28;20101;-72
2021/12/08 11:01:21;;;;;;;;;;;3.10;74.80;;;0.64;86.28;94482.28;4968991;28;20541;-69
2021/12/08 11:03:48;;;;;;;7.72;4.60;;;3.10;74.70;;;0.65;87.04;94484.72;4969575;28;19922;-70
2021/12/08 11:06:16;;;;;;;9.00;5.28;;;3.10;75.10;;;0.64;87.26;94483.09;4967396;28;20026;-72
2021/12/08 11:08:47;;;;;;;10.10;5.28;;;3.10;75.50;;;0.63;86.98;94488.44;4947377;28;20074;-68
2021/12/08 11:11:20;;;;;;;11.55;5.38;;;3.10;75.40;;;0.59;86.80;94486.19;4954781;28;20039;-68
2021/12/08 11:13:48;;;;;;;7.90;5.00;;;3.00;75.60;;;0.63;86.87;94498.78;4969786;28;20039;-69
2021/12/08 11:16:30;;;;;;;10.70;5.07;;;3.00;75.50;;;0.63;87.42;94493.63;4939242;28;20568;-69
2021/12/08 11:19:10;;;;;;;8.57;5.05;;;3.00;75.60;;;0.62;87.24;94490.22;4959694;28;20047;-69
2021/12/08 11:21:42;;;;;;;9.60;5.13;;;3.10;75.90;;;0.61;86.81;94494.59;4958198;28;20249;-69
2021/12/08 11:24:33;;;;;;;8.98;5.25;;;3.00;75.70;;;0.63;87.03;94488.44;4936487;28;20032;-69
2021/12/08 11:27:04;;;;;;;10.93;4.97;;;3.00;75.70;;;0.60;86.64;94498.16;4936924;28;20185;-68
2021/12/08 11:29:31;;;;;;;;;;;3.00;75.50;;;0.63;86.47;94503.97;4967113;28;20089;-70